createdAt,value
2017-05-09T00:00:12.058Z,925.58
2017-05-09T00:00:30.808Z,925.55
2017-05-09T00:00:50.085Z,925.54
2017-05-09T00:01:09.342Z,925.62
2017-05-09T00:01:27.597Z,925.6
2017-05-09T00:01:46.858Z,925.63
2017-05-09T00:02:06.123Z,925.61
2017-05-09T00:02:24.396Z,925.61
2017-05-09T00:02:43.198Z,925.63
2017-05-09T00:03:02.512Z,925.6
2017-05-09T00:03:21.812Z,925.62
2017-05-09T00:03:41.070Z,925.63
2017-05-09T00:04:00.353Z,925.63
2017-05-09T00:04:19.141Z,925.66
2017-05-09T00:04:38.466Z,925.67
2017-05-09T00:04:57.282Z,925.67
2017-05-09T00:05:16.579Z,925.67
2017-05-09T00:05:35.814Z,925.69
2017-05-09T00:05:55.099Z,925.67
2017-05-09T00:06:13.914Z,925.7
2017-05-09T00:06:33.155Z,925.67
2017-05-09T00:06:52.399Z,925.7
2017-05-09T00:07:11.673Z,925.73
2017-05-09T00:07:30.896Z,925.73
2017-05-09T00:07:50.188Z,925.72
2017-05-09T00:08:09.482Z,925.7
2017-05-09T00:08:28.216Z,925.72
2017-05-09T00:08:47.515Z,925.7
2017-05-09T00:09:06.786Z,925.7
2017-05-09T00:09:26.029Z,925.72
2017-05-09T00:09:45.261Z,925.75
2017-05-09T00:10:04.531Z,925.71
2017-05-09T00:10:23.320Z,925.72
2017-05-09T00:10:42.575Z,925.74
2017-05-09T00:11:01.317Z,925.73
2017-05-09T00:11:20.557Z,925.72
2017-05-09T00:11:39.298Z,925.73
2017-05-09T00:11:58.608Z,925.73
2017-05-09T00:12:17.904Z,925.73
2017-05-09T00:12:37.184Z,925.75
2017-05-09T00:12:55.941Z,925.72
2017-05-09T00:13:15.191Z,925.72
2017-05-09T00:13:34.480Z,925.73
2017-05-09T00:13:53.233Z,925.74
2017-05-09T00:14:11.998Z,925.71
2017-05-09T00:14:31.287Z,925.72
2017-05-09T00:14:50.042Z,925.71
2017-05-09T00:15:09.287Z,925.72
2017-05-09T00:15:28.051Z,925.72
2017-05-09T00:15:47.326Z,925.74
2017-05-09T00:16:06.619Z,925.74
2017-05-09T00:16:25.661Z,925.73
2017-05-09T00:16:44.919Z,925.69
2017-05-09T00:17:04.198Z,925.73
2017-05-09T00:17:22.432Z,925.71
2017-05-09T00:17:41.718Z,925.68
2017-05-09T00:18:00.982Z,925.7
2017-05-09T00:18:20.304Z,925.69
2017-05-09T00:18:39.051Z,925.69
2017-05-09T00:18:58.331Z,925.69
2017-05-09T00:19:17.604Z,925.71
2017-05-09T00:19:36.884Z,925.69
2017-05-09T00:19:56.149Z,925.69
2017-05-09T00:20:14.894Z,925.69
2017-05-09T00:20:33.657Z,925.73
2017-05-09T00:20:52.890Z,925.76
2017-05-09T00:21:12.138Z,925.71
2017-05-09T00:21:31.443Z,925.74
2017-05-09T00:21:50.733Z,925.75
2017-05-09T00:22:10.002Z,925.75
2017-05-09T00:22:28.752Z,925.75
2017-05-09T00:22:48.057Z,925.77
2017-05-09T00:23:07.350Z,925.78
2017-05-09T00:23:26.672Z,925.8
2017-05-09T00:23:45.933Z,925.8
2017-05-09T00:24:04.684Z,925.81
2017-05-09T00:24:23.934Z,925.8
2017-05-09T00:24:42.677Z,925.77
2017-05-09T00:25:01.959Z,925.76
2017-05-09T00:25:20.719Z,925.76
2017-05-09T00:25:39.984Z,925.77
2017-05-09T00:25:58.771Z,925.77
2017-05-09T00:26:18.068Z,925.76
2017-05-09T00:26:37.361Z,925.78
2017-05-09T00:26:56.653Z,925.73
2017-05-09T00:27:15.946Z,925.72
2017-05-09T00:27:35.200Z,925.72
2017-05-09T00:27:54.042Z,925.69
2017-05-09T00:28:13.334Z,925.67
2017-05-09T00:28:32.642Z,925.7
2017-05-09T00:28:51.957Z,925.7
2017-05-09T00:29:11.206Z,925.69
2017-05-09T00:29:30.483Z,925.7
2017-05-09T00:29:49.749Z,925.71
2017-05-09T00:30:09.028Z,925.68
2017-05-09T00:30:27.988Z,925.66
2017-05-09T00:30:46.727Z,925.65
2017-05-09T00:31:06.005Z,925.66
2017-05-09T00:31:25.711Z,925.67
2017-05-09T00:31:44.991Z,925.65
2017-05-09T00:32:04.250Z,925.71
2017-05-09T00:32:22.995Z,925.71
2017-05-09T00:32:42.277Z,925.69
2017-05-09T00:33:01.573Z,925.7
2017-05-09T00:33:20.844Z,925.72
2017-05-09T00:33:40.137Z,925.67
2017-05-09T00:33:59.436Z,925.7
2017-05-09T00:34:17.696Z,925.72
2017-05-09T00:34:36.968Z,925.71
2017-05-09T00:34:56.333Z,925.7
2017-05-09T00:35:15.100Z,925.72
2017-05-09T00:35:34.330Z,925.72
2017-05-09T00:35:53.622Z,925.73
2017-05-09T00:36:12.936Z,925.74
2017-05-09T00:36:32.201Z,925.74
2017-05-09T00:36:51.445Z,925.76
2017-05-09T00:37:10.221Z,925.76
2017-05-09T00:37:28.971Z,925.75
2017-05-09T00:37:48.235Z,925.76
2017-05-09T00:38:07.510Z,925.78
2017-05-09T00:38:26.263Z,925.76
2017-05-09T00:38:45.582Z,925.79
2017-05-09T00:39:04.829Z,925.79
2017-05-09T00:39:23.584Z,925.81
2017-05-09T00:39:42.293Z,925.81
2017-05-09T00:40:01.593Z,925.79
2017-05-09T00:40:20.859Z,925.83
2017-05-09T00:40:40.131Z,925.82
2017-05-09T00:40:59.405Z,925.8
2017-05-09T00:41:18.118Z,925.82
2017-05-09T00:41:37.404Z,925.83
2017-05-09T00:41:56.659Z,925.84
2017-05-09T00:42:15.952Z,925.86
2017-05-09T00:42:35.213Z,925.83
2017-05-09T00:42:54.481Z,925.83
2017-05-09T00:43:13.738Z,925.83
2017-05-09T00:43:33.051Z,925.81
2017-05-09T00:43:52.320Z,925.83
2017-05-09T00:44:12.144Z,925.86
2017-05-09T00:44:30.915Z,925.82
2017-05-09T00:44:50.149Z,925.83
2017-05-09T00:45:09.433Z,925.8
2017-05-09T00:45:28.204Z,925.81
2017-05-09T00:45:47.425Z,925.8
2017-05-09T00:46:06.695Z,925.79
2017-05-09T00:46:25.726Z,925.75
2017-05-09T00:46:44.987Z,925.8
2017-05-09T00:47:04.267Z,925.76
2017-05-09T00:47:37.551Z,925.76
2017-05-09T00:48:10.827Z,925.78
2017-05-09T00:48:30.125Z,925.77
2017-05-09T00:48:49.389Z,925.8
2017-05-09T00:49:08.705Z,925.77
2017-05-09T00:49:27.988Z,925.83
2017-05-09T00:49:46.773Z,925.85
2017-05-09T00:50:06.079Z,925.82
2017-05-09T00:50:24.816Z,925.81
2017-05-09T00:50:44.079Z,925.83
2017-05-09T00:51:04.093Z,925.81
2017-05-09T00:51:23.387Z,925.8
2017-05-09T00:51:42.128Z,925.82
2017-05-09T00:52:01.400Z,925.82
2017-05-09T00:52:20.652Z,925.84
2017-05-09T00:52:39.946Z,925.84
2017-05-09T00:52:58.676Z,925.83
2017-05-09T00:53:17.440Z,925.77
2017-05-09T00:53:36.717Z,925.79
2017-05-09T00:53:56.031Z,925.8
2017-05-09T00:54:15.438Z,925.81
2017-05-09T00:54:34.728Z,925.75
2017-05-09T00:54:53.977Z,925.77
2017-05-09T00:55:12.712Z,925.75
2017-05-09T00:55:31.461Z,925.76
2017-05-09T00:55:50.705Z,925.77
2017-05-09T00:56:09.450Z,925.77
2017-05-09T00:56:28.307Z,925.76
2017-05-09T00:56:47.589Z,925.71
2017-05-09T00:57:06.332Z,925.68
2017-05-09T00:57:25.684Z,925.71
2017-05-09T00:57:44.968Z,925.68
2017-05-09T00:58:03.714Z,925.68
2017-05-09T00:58:22.486Z,925.66
2017-05-09T00:58:41.757Z,925.69
2017-05-09T00:59:00.545Z,925.69
2017-05-09T00:59:19.818Z,925.66
2017-05-09T00:59:39.157Z,925.69
2017-05-09T00:59:58.444Z,925.68
2017-05-09T01:00:17.191Z,925.65
2017-05-09T01:00:36.469Z,925.68
2017-05-09T01:00:55.233Z,925.67
2017-05-09T01:01:14.498Z,925.62
2017-05-09T01:01:33.757Z,925.62
2017-05-09T01:01:52.999Z,925.68
2017-05-09T01:02:12.262Z,925.66
2017-05-09T01:02:31.509Z,925.68
2017-05-09T01:02:50.787Z,925.67
2017-05-09T01:03:10.058Z,925.7
2017-05-09T01:03:29.351Z,925.7
2017-05-09T01:03:48.612Z,925.71
2017-05-09T01:04:07.887Z,925.68
2017-05-09T01:04:26.665Z,925.69
2017-05-09T01:04:44.921Z,925.72
2017-05-09T01:05:04.221Z,925.68
2017-05-09T01:05:22.467Z,925.69
2017-05-09T01:05:41.753Z,925.68
2017-05-09T01:06:01.032Z,925.72
2017-05-09T01:06:20.282Z,925.75
2017-05-09T01:06:39.047Z,925.69
2017-05-09T01:06:58.324Z,925.7
2017-05-09T01:07:17.121Z,925.71
2017-05-09T01:07:35.936Z,925.74
2017-05-09T01:07:55.193Z,925.71
2017-05-09T01:08:14.470Z,925.69
2017-05-09T01:08:33.736Z,925.7
2017-05-09T01:08:53.007Z,925.71
2017-05-09T01:09:12.277Z,925.7
2017-05-09T01:09:31.567Z,925.72
2017-05-09T01:09:50.848Z,925.72
2017-05-09T01:10:10.130Z,925.74
2017-05-09T01:10:28.878Z,925.71
2017-05-09T01:10:48.195Z,925.75
2017-05-09T01:11:07.465Z,925.7
2017-05-09T01:11:26.216Z,925.7
2017-05-09T01:11:45.514Z,925.72
2017-05-09T01:12:04.794Z,925.75
2017-05-09T01:12:24.076Z,925.78
2017-05-09T01:12:43.361Z,925.78
2017-05-09T01:13:02.646Z,925.77
2017-05-09T01:13:21.938Z,925.8
2017-05-09T01:13:41.209Z,925.77
2017-05-09T01:14:00.519Z,925.8
2017-05-09T01:14:19.792Z,925.78
2017-05-09T01:14:39.084Z,925.83
2017-05-09T01:14:58.385Z,925.81
2017-05-09T01:15:17.613Z,925.8
2017-05-09T01:15:36.904Z,925.77
2017-05-09T01:15:56.194Z,925.8
2017-05-09T01:16:15.480Z,925.8
2017-05-09T01:16:34.727Z,925.78
2017-05-09T01:16:54.008Z,925.78
2017-05-09T01:17:13.263Z,925.77
2017-05-09T01:17:32.588Z,925.78
2017-05-09T01:17:51.881Z,925.8
2017-05-09T01:18:11.173Z,925.79
2017-05-09T01:18:29.931Z,925.78
2017-05-09T01:18:48.706Z,925.77
2017-05-09T01:19:07.985Z,925.75
2017-05-09T01:19:27.257Z,925.77
2017-05-09T01:19:46.022Z,925.8
2017-05-09T01:20:05.299Z,925.74
2017-05-09T01:20:24.049Z,925.7
2017-05-09T01:20:43.340Z,925.76
2017-05-09T01:21:02.610Z,925.7
2017-05-09T01:21:21.912Z,925.71
2017-05-09T01:21:41.489Z,925.71
2017-05-09T01:22:00.780Z,925.7
2017-05-09T01:22:20.057Z,925.73
2017-05-09T01:22:39.344Z,925.72
2017-05-09T01:22:58.611Z,925.75
2017-05-09T01:23:17.898Z,925.71
2017-05-09T01:23:37.161Z,925.71
2017-05-09T01:23:55.909Z,925.75
2017-05-09T01:24:15.156Z,925.73
2017-05-09T01:24:34.472Z,925.73
2017-05-09T01:24:53.794Z,925.78
2017-05-09T01:25:13.069Z,925.74
2017-05-09T01:25:32.339Z,925.74
2017-05-09T01:25:51.608Z,925.74
2017-05-09T01:26:10.832Z,925.77
2017-05-09T01:26:29.605Z,925.78
2017-05-09T01:26:48.886Z,925.78
2017-05-09T01:27:08.155Z,925.78
2017-05-09T01:27:27.394Z,925.8
2017-05-09T01:27:46.625Z,925.79
2017-05-09T01:28:05.901Z,925.77
2017-05-09T01:28:24.598Z,925.82
2017-05-09T01:28:43.355Z,925.79
2017-05-09T01:29:02.080Z,925.79
2017-05-09T01:29:20.837Z,925.8
2017-05-09T01:29:40.147Z,925.8
2017-05-09T01:29:59.398Z,925.81
2017-05-09T01:30:18.625Z,925.83
2017-05-09T01:30:37.907Z,925.84
2017-05-09T01:30:57.178Z,925.84
2017-05-09T01:31:16.472Z,925.81
2017-05-09T01:31:35.255Z,925.84
2017-05-09T01:31:54.559Z,925.79
2017-05-09T01:32:13.325Z,925.83
2017-05-09T01:32:32.094Z,925.85
2017-05-09T01:32:51.364Z,925.83
2017-05-09T01:33:10.115Z,925.84
2017-05-09T01:33:29.397Z,925.82
2017-05-09T01:33:48.678Z,925.84
2017-05-09T01:34:07.949Z,925.85
2017-05-09T01:34:26.724Z,925.85
2017-05-09T01:34:45.985Z,925.84
2017-05-09T01:35:05.213Z,925.85
2017-05-09T01:35:24.463Z,925.86
2017-05-09T01:35:43.711Z,925.84
2017-05-09T01:36:02.991Z,925.84
2017-05-09T01:36:21.757Z,925.84
2017-05-09T01:36:41.028Z,925.83
2017-05-09T01:37:00.271Z,925.83
2017-05-09T01:37:19.560Z,925.84
2017-05-09T01:37:38.778Z,925.85
2017-05-09T01:37:58.037Z,925.86
2017-05-09T01:38:17.330Z,925.84
2017-05-09T01:38:36.549Z,925.85
2017-05-09T01:39:29.101Z,925.82
2017-05-09T01:39:48.372Z,925.83
2017-05-09T01:40:07.157Z,925.82
2017-05-09T01:40:26.446Z,925.89
2017-05-09T01:40:45.180Z,925.85
2017-05-09T01:41:03.946Z,925.86
2017-05-09T01:41:23.555Z,925.83
2017-05-09T01:41:42.807Z,925.88
2017-05-09T01:42:02.067Z,925.88
2017-05-09T01:42:20.848Z,925.88
2017-05-09T01:42:40.090Z,925.85
2017-05-09T01:42:59.365Z,925.85
2017-05-09T01:43:18.625Z,925.83
2017-05-09T01:43:37.921Z,925.86
2017-05-09T01:43:57.183Z,925.88
2017-05-09T01:44:16.507Z,925.84
2017-05-09T01:44:35.266Z,925.86
2017-05-09T01:44:54.036Z,925.84
2017-05-09T01:45:13.315Z,925.82
2017-05-09T01:45:32.640Z,925.84
2017-05-09T01:45:51.369Z,925.86
2017-05-09T01:46:10.765Z,925.83
2017-05-09T01:46:30.168Z,925.82
2017-05-09T01:46:48.921Z,925.8
2017-05-09T01:47:08.205Z,925.81
2017-05-09T01:47:26.971Z,925.8
2017-05-09T01:47:46.269Z,925.79
2017-05-09T01:48:05.488Z,925.78
2017-05-09T01:48:24.260Z,925.79
2017-05-09T01:48:43.495Z,925.77
2017-05-09T01:49:02.772Z,925.77
2017-05-09T01:49:22.051Z,925.76
2017-05-09T01:49:41.250Z,925.76
2017-05-09T01:50:00.477Z,925.72
2017-05-09T01:50:19.744Z,925.74
2017-05-09T01:50:39.001Z,925.77
2017-05-09T01:50:58.278Z,925.77
2017-05-09T01:51:17.042Z,925.78
2017-05-09T01:51:36.355Z,925.73
2017-05-09T01:51:55.637Z,925.85
2017-05-09T01:52:14.917Z,925.81
2017-05-09T01:52:34.201Z,925.84
2017-05-09T01:52:52.454Z,925.8
2017-05-09T01:53:11.732Z,925.82
2017-05-09T01:53:31.005Z,925.77
2017-05-09T01:53:49.784Z,925.77
2017-05-09T01:54:09.070Z,925.76
2017-05-09T01:54:28.344Z,925.76
2017-05-09T01:54:47.614Z,925.74
2017-05-09T01:55:06.897Z,925.76
2017-05-09T01:55:25.671Z,925.78
2017-05-09T01:55:44.939Z,925.76
2017-05-09T01:56:04.188Z,925.75
2017-05-09T01:56:22.950Z,925.73
2017-05-09T01:56:42.206Z,925.71
2017-05-09T01:57:00.960Z,925.72
2017-05-09T01:57:20.248Z,925.7
2017-05-09T01:57:39.016Z,925.71
2017-05-09T01:57:57.803Z,925.71
2017-05-09T01:58:17.062Z,925.68
2017-05-09T01:58:35.837Z,925.7
2017-05-09T01:58:55.157Z,925.71
2017-05-09T01:59:14.471Z,925.69
2017-05-09T01:59:33.773Z,925.68
2017-05-09T01:59:53.027Z,925.68
2017-05-09T02:00:12.342Z,925.7
2017-05-09T02:00:31.121Z,925.68
2017-05-09T02:00:49.840Z,925.7
2017-05-09T02:01:09.159Z,925.7
2017-05-09T02:01:27.907Z,925.67
2017-05-09T02:01:47.141Z,925.68
2017-05-09T02:02:06.435Z,925.67
2017-05-09T02:02:25.723Z,925.68
2017-05-09T02:02:45.035Z,925.67
2017-05-09T02:03:04.302Z,925.63
2017-05-09T02:03:23.561Z,925.63
2017-05-09T02:03:41.786Z,925.64
2017-05-09T02:04:01.087Z,925.62
2017-05-09T02:04:20.376Z,925.64
2017-05-09T02:04:39.135Z,925.58
2017-05-09T02:04:57.905Z,925.69
2017-05-09T02:05:17.176Z,925.69
2017-05-09T02:05:36.424Z,925.65
2017-05-09T02:05:55.695Z,925.62
2017-05-09T02:06:14.483Z,925.68
2017-05-09T02:06:33.224Z,925.67
2017-05-09T02:06:52.468Z,925.72
2017-05-09T02:07:11.776Z,925.7
2017-05-09T02:07:31.084Z,925.7
2017-05-09T02:07:49.839Z,925.72
2017-05-09T02:08:09.138Z,925.68
2017-05-09T02:08:27.917Z,925.69
2017-05-09T02:08:47.195Z,925.68
2017-05-09T02:09:06.489Z,925.66
2017-05-09T02:09:25.238Z,925.65
2017-05-09T02:09:44.551Z,925.68
2017-05-09T02:10:03.841Z,925.63
2017-05-09T02:10:22.060Z,925.65
2017-05-09T02:10:41.285Z,925.62
2017-05-09T02:11:00.585Z,925.63
2017-05-09T02:11:19.304Z,925.62
2017-05-09T02:11:38.609Z,925.65
2017-05-09T02:11:57.880Z,925.61
2017-05-09T02:12:17.140Z,925.64
2017-05-09T02:12:35.912Z,925.62
2017-05-09T02:12:55.199Z,925.6
2017-05-09T02:13:14.508Z,925.59
2017-05-09T02:13:33.779Z,925.59
2017-05-09T02:13:53.055Z,925.61
2017-05-09T02:14:11.802Z,925.62
2017-05-09T02:14:31.097Z,925.66
2017-05-09T02:14:49.848Z,925.63
2017-05-09T02:15:09.118Z,925.61
2017-05-09T02:15:28.420Z,925.64
2017-05-09T02:15:47.145Z,925.66
2017-05-09T02:16:06.432Z,925.7
2017-05-09T02:16:25.687Z,925.63
2017-05-09T02:16:44.953Z,925.62
2017-05-09T02:17:04.244Z,925.65
2017-05-09T02:17:23.530Z,925.66
2017-05-09T02:17:42.817Z,925.66
2017-05-09T02:18:01.576Z,925.63
2017-05-09T02:18:20.853Z,925.68
2017-05-09T02:18:40.145Z,925.64
2017-05-09T02:18:59.430Z,925.66
2017-05-09T02:19:18.734Z,925.64
2017-05-09T02:19:37.475Z,925.64
2017-05-09T02:19:56.240Z,925.67
2017-05-09T02:20:15.533Z,925.66
2017-05-09T02:20:34.789Z,925.63
2017-05-09T02:20:54.044Z,925.65
2017-05-09T02:21:13.315Z,925.67
2017-05-09T02:21:32.197Z,925.65
2017-05-09T02:21:51.492Z,925.68
2017-05-09T02:22:10.786Z,925.65
2017-05-09T02:22:30.026Z,925.71
2017-05-09T02:22:49.299Z,925.68
2017-05-09T02:23:08.568Z,925.69
2017-05-09T02:23:27.310Z,925.7
2017-05-09T02:23:46.046Z,925.69
2017-05-09T02:24:05.269Z,925.75
2017-05-09T02:24:24.054Z,925.72
2017-05-09T02:24:42.798Z,925.72
2017-05-09T02:25:02.010Z,925.75
2017-05-09T02:25:20.755Z,925.74
2017-05-09T02:25:40.044Z,925.72
2017-05-09T02:25:59.328Z,925.75
2017-05-09T02:26:18.073Z,925.7
2017-05-09T02:26:37.340Z,925.72
2017-05-09T02:26:56.605Z,925.7
2017-05-09T02:27:15.883Z,925.68
2017-05-09T02:27:35.146Z,925.69
2017-05-09T02:27:54.394Z,925.71
2017-05-09T02:28:13.627Z,925.69
2017-05-09T02:28:32.877Z,925.69
2017-05-09T02:28:52.094Z,925.68
2017-05-09T02:29:11.354Z,925.67
2017-05-09T02:29:30.643Z,925.64
2017-05-09T02:29:49.888Z,925.66
2017-05-09T02:30:09.141Z,925.62
2017-05-09T02:30:28.431Z,925.6
2017-05-09T02:30:47.165Z,925.63
2017-05-09T02:31:06.424Z,925.62
2017-05-09T02:31:25.736Z,925.65
2017-05-09T02:31:45.043Z,925.62
2017-05-09T02:32:04.299Z,925.66
2017-05-09T02:32:22.555Z,925.62
2017-05-09T02:32:41.854Z,925.67
2017-05-09T02:33:01.159Z,925.7
2017-05-09T02:33:20.441Z,925.68
2017-05-09T02:33:39.735Z,925.68
2017-05-09T02:33:59.017Z,925.66
2017-05-09T02:34:17.243Z,925.65
2017-05-09T02:34:35.983Z,925.64
2017-05-09T02:34:55.208Z,925.68
2017-05-09T02:35:13.967Z,925.7
2017-05-09T02:35:33.256Z,925.68
2017-05-09T02:35:52.529Z,925.67
2017-05-09T02:36:11.293Z,925.67
2017-05-09T02:36:30.767Z,925.7
2017-05-09T02:36:50.054Z,925.67
2017-05-09T02:37:08.819Z,925.7
2017-05-09T02:37:28.068Z,925.64
2017-05-09T02:37:46.816Z,925.68
2017-05-09T02:38:06.094Z,925.69
2017-05-09T02:38:25.365Z,925.66
2017-05-09T02:38:44.645Z,925.69
2017-05-09T02:39:03.965Z,925.68
2017-05-09T02:39:22.727Z,925.66
2017-05-09T02:39:42.018Z,925.66
2017-05-09T02:40:00.807Z,925.66
2017-05-09T02:40:20.105Z,925.64
2017-05-09T02:40:38.858Z,925.63
2017-05-09T02:40:57.618Z,925.65
2017-05-09T02:41:16.476Z,925.61
2017-05-09T02:41:35.751Z,925.63
2017-05-09T02:41:54.986Z,925.67
2017-05-09T02:42:14.241Z,925.66
2017-05-09T02:42:32.951Z,925.7
2017-05-09T02:42:52.257Z,925.67
2017-05-09T02:43:11.546Z,925.69
2017-05-09T02:43:30.325Z,925.72
2017-05-09T02:43:49.602Z,925.69
2017-05-09T02:44:08.847Z,925.74
2017-05-09T02:44:27.596Z,925.75
2017-05-09T02:44:45.821Z,925.76
2017-05-09T02:45:05.093Z,925.73
2017-05-09T02:45:24.374Z,925.73
2017-05-09T02:45:43.638Z,925.72
2017-05-09T02:46:02.908Z,925.73
2017-05-09T02:46:22.185Z,925.73
2017-05-09T02:46:41.442Z,925.75
2017-05-09T02:47:00.705Z,925.74
2017-05-09T02:47:19.495Z,925.76
2017-05-09T02:47:38.810Z,925.78
2017-05-09T02:47:58.078Z,925.75
2017-05-09T02:48:17.349Z,925.78
2017-05-09T02:48:36.103Z,925.75
2017-05-09T02:48:55.392Z,925.71
2017-05-09T02:49:14.703Z,925.76
2017-05-09T02:49:33.997Z,925.76
2017-05-09T02:49:53.260Z,925.76
2017-05-09T02:50:12.013Z,925.73
2017-05-09T02:50:30.784Z,925.78
2017-05-09T02:50:49.533Z,925.79
2017-05-09T02:51:08.290Z,925.77
2017-05-09T02:51:27.592Z,925.77
2017-05-09T02:51:46.893Z,925.77
2017-05-09T02:52:05.663Z,925.81
2017-05-09T02:52:24.940Z,925.76
2017-05-09T02:52:44.209Z,925.81
2017-05-09T02:53:02.951Z,925.78
2017-05-09T02:53:22.204Z,925.78
2017-05-09T02:53:41.505Z,925.81
2017-05-09T02:54:00.782Z,925.8
2017-05-09T02:54:19.553Z,925.78
2017-05-09T02:54:38.822Z,925.84
2017-05-09T02:54:58.106Z,925.8
2017-05-09T02:55:17.381Z,925.81
2017-05-09T02:55:36.641Z,925.78
2017-05-09T02:55:55.927Z,925.82
2017-05-09T02:56:15.219Z,925.76
2017-05-09T02:56:34.480Z,925.77
2017-05-09T02:56:53.765Z,925.74
2017-05-09T02:57:13.058Z,925.73
2017-05-09T02:57:32.331Z,925.76
2017-05-09T02:57:51.598Z,925.71
2017-05-09T02:58:10.850Z,925.73
2017-05-09T02:58:30.147Z,925.74
2017-05-09T02:58:49.406Z,925.73
2017-05-09T02:59:08.657Z,925.74
2017-05-09T02:59:27.917Z,925.7
2017-05-09T02:59:47.176Z,925.72
2017-05-09T03:00:06.479Z,925.7
2017-05-09T03:00:25.258Z,925.69
2017-05-09T03:00:44.530Z,925.72
2017-05-09T03:01:03.807Z,925.74
2017-05-09T03:01:23.055Z,925.69
2017-05-09T03:01:41.295Z,925.74
2017-05-09T03:02:00.551Z,925.74
2017-05-09T03:02:19.284Z,925.75
2017-05-09T03:02:38.542Z,925.76
2017-05-09T03:02:57.834Z,925.74
2017-05-09T03:03:17.107Z,925.76
2017-05-09T03:03:35.874Z,925.79
2017-05-09T03:03:54.627Z,925.8
2017-05-09T03:04:13.910Z,925.8
2017-05-09T03:04:32.679Z,925.77
2017-05-09T03:04:51.936Z,925.85
2017-05-09T03:05:11.218Z,925.82
2017-05-09T03:05:30.513Z,925.84
2017-05-09T03:05:49.808Z,925.87
2017-05-09T03:06:09.083Z,925.85
2017-05-09T03:06:28.331Z,925.86
2017-05-09T03:06:47.587Z,925.86
2017-05-09T03:07:06.840Z,925.91
2017-05-09T03:07:26.143Z,925.88
2017-05-09T03:07:45.417Z,925.88
2017-05-09T03:08:04.723Z,925.89
2017-05-09T03:08:24.048Z,925.9
2017-05-09T03:08:43.323Z,925.89
2017-05-09T03:09:02.554Z,925.9
2017-05-09T03:09:21.833Z,925.92
2017-05-09T03:09:41.087Z,925.9
2017-05-09T03:10:00.348Z,925.84
2017-05-09T03:10:19.087Z,925.84
2017-05-09T03:10:38.392Z,925.86
2017-05-09T03:10:57.643Z,925.86
2017-05-09T03:11:16.887Z,925.86
2017-05-09T03:11:36.427Z,925.88
2017-05-09T03:11:54.645Z,925.85
2017-05-09T03:12:13.928Z,925.87
2017-05-09T03:12:32.671Z,925.86
2017-05-09T03:12:51.947Z,925.88
2017-05-09T03:13:11.223Z,925.85
2017-05-09T03:13:29.462Z,925.85
2017-05-09T03:13:48.716Z,925.84
2017-05-09T03:14:07.996Z,925.84
2017-05-09T03:14:26.235Z,925.87
2017-05-09T03:14:45.552Z,925.86
2017-05-09T03:15:04.793Z,925.86
2017-05-09T03:15:24.021Z,925.82
2017-05-09T03:15:42.803Z,925.82
2017-05-09T03:16:01.572Z,925.85
2017-05-09T03:16:20.797Z,925.82
2017-05-09T03:16:40.031Z,925.86
2017-05-09T03:16:58.263Z,925.84
2017-05-09T03:17:17.500Z,925.85
2017-05-09T03:17:36.745Z,925.83
2017-05-09T03:17:55.495Z,925.88
2017-05-09T03:18:14.769Z,925.86
2017-05-09T03:18:34.025Z,925.84
2017-05-09T03:18:53.302Z,925.86
2017-05-09T03:19:12.617Z,925.9
2017-05-09T03:19:31.398Z,925.87
2017-05-09T03:19:50.643Z,925.89
2017-05-09T03:20:09.964Z,925.87
2017-05-09T03:20:29.230Z,925.87
2017-05-09T03:20:48.494Z,925.86
2017-05-09T03:21:08.060Z,925.93
2017-05-09T03:21:27.318Z,925.9
2017-05-09T03:21:46.115Z,925.92
2017-05-09T03:22:05.416Z,925.87
2017-05-09T03:22:24.684Z,925.86
2017-05-09T03:22:43.469Z,925.86
2017-05-09T03:23:02.688Z,925.86
2017-05-09T03:23:21.930Z,925.82
2017-05-09T03:23:41.185Z,925.81
2017-05-09T03:24:00.415Z,925.82
2017-05-09T03:24:19.691Z,925.79
2017-05-09T03:24:37.940Z,925.77
2017-05-09T03:24:56.664Z,925.78
2017-05-09T03:25:15.943Z,925.75
2017-05-09T03:25:35.225Z,925.76
2017-05-09T03:25:54.460Z,925.78
2017-05-09T03:26:13.704Z,925.79
2017-05-09T03:26:32.445Z,925.75
2017-05-09T03:26:51.712Z,925.76
2017-05-09T03:27:10.971Z,925.74
2017-05-09T03:27:30.260Z,925.75
2017-05-09T03:27:49.535Z,925.74
2017-05-09T03:28:08.773Z,925.77
2017-05-09T03:28:28.061Z,925.73
2017-05-09T03:28:47.377Z,925.73
2017-05-09T03:29:06.693Z,925.73
2017-05-09T03:29:25.988Z,925.74
2017-05-09T03:29:44.725Z,925.74
2017-05-09T03:30:03.507Z,925.75
2017-05-09T03:30:22.298Z,925.74
2017-05-09T03:30:41.587Z,925.74
2017-05-09T03:31:00.351Z,925.72
2017-05-09T03:31:19.059Z,925.74
2017-05-09T03:31:38.300Z,925.75
2017-05-09T03:31:57.546Z,925.74
2017-05-09T03:32:16.762Z,925.75
2017-05-09T03:32:35.499Z,925.69
2017-05-09T03:32:54.772Z,925.72
2017-05-09T03:33:14.048Z,925.72
2017-05-09T03:33:33.294Z,925.7
2017-05-09T03:33:52.576Z,925.68
2017-05-09T03:34:11.842Z,925.67
2017-05-09T03:34:31.102Z,925.69
2017-05-09T03:34:50.332Z,925.63
2017-05-09T03:35:09.622Z,925.67
2017-05-09T03:35:28.893Z,925.61
2017-05-09T03:35:47.622Z,925.64
2017-05-09T03:36:06.890Z,925.62
2017-05-09T03:36:26.128Z,925.6
2017-05-09T03:36:44.875Z,925.63
2017-05-09T03:37:03.664Z,925.61
2017-05-09T03:37:22.424Z,925.63
2017-05-09T03:37:41.710Z,925.62
2017-05-09T03:38:00.977Z,925.63
2017-05-09T03:38:20.263Z,925.61
2017-05-09T03:38:39.531Z,925.55
2017-05-09T03:38:58.808Z,925.55
2017-05-09T03:39:17.041Z,925.56
2017-05-09T03:39:36.287Z,925.53
2017-05-09T03:39:55.557Z,925.59
2017-05-09T03:40:14.322Z,925.56
2017-05-09T03:40:33.629Z,925.53
2017-05-09T03:40:52.952Z,925.53
2017-05-09T03:41:12.233Z,925.51
2017-05-09T03:41:31.019Z,925.49
2017-05-09T03:41:50.285Z,925.5
2017-05-09T03:42:09.560Z,925.48
2017-05-09T03:42:28.309Z,925.49
2017-05-09T03:42:47.573Z,925.51
2017-05-09T03:43:06.863Z,925.46
2017-05-09T03:43:25.606Z,925.45
2017-05-09T03:43:44.880Z,925.44
2017-05-09T03:44:04.189Z,925.44
2017-05-09T03:44:22.948Z,925.44
2017-05-09T03:44:41.720Z,925.46
2017-05-09T03:45:01.015Z,925.43
2017-05-09T03:45:20.312Z,925.42
2017-05-09T03:45:39.572Z,925.45
2017-05-09T03:45:58.882Z,925.41
2017-05-09T03:46:18.348Z,925.42
2017-05-09T03:46:37.828Z,925.39
2017-05-09T03:46:57.081Z,925.42
2017-05-09T03:47:16.372Z,925.4
2017-05-09T03:47:35.709Z,925.38
2017-05-09T03:47:54.470Z,925.41
2017-05-09T03:48:13.763Z,925.38
2017-05-09T03:48:32.537Z,925.38
2017-05-09T03:48:51.819Z,925.37
2017-05-09T03:49:10.574Z,925.4
2017-05-09T03:49:29.339Z,925.38
2017-05-09T03:49:48.595Z,925.41
2017-05-09T03:50:07.859Z,925.38
2017-05-09T03:50:27.124Z,925.39
2017-05-09T03:50:46.349Z,925.35
2017-05-09T03:51:05.596Z,925.35
2017-05-09T03:51:24.368Z,925.35
2017-05-09T03:51:43.603Z,925.37
2017-05-09T03:52:02.922Z,925.33
2017-05-09T03:52:21.210Z,925.35
2017-05-09T03:52:40.538Z,925.33
2017-05-09T03:52:59.843Z,925.37
2017-05-09T03:53:18.604Z,925.35
2017-05-09T03:53:37.870Z,925.4
2017-05-09T03:53:57.160Z,925.37
2017-05-09T03:54:16.450Z,925.37
2017-05-09T03:54:35.741Z,925.35
2017-05-09T03:54:55.044Z,925.39
2017-05-09T03:55:14.322Z,925.45
2017-05-09T03:55:33.559Z,925.43
2017-05-09T03:55:52.846Z,925.43
2017-05-09T03:56:12.144Z,925.43
2017-05-09T03:56:31.372Z,925.44
2017-05-09T03:56:50.121Z,925.44
2017-05-09T03:57:09.408Z,925.46
2017-05-09T03:57:28.646Z,925.48
2017-05-09T03:57:47.913Z,925.49
2017-05-09T03:58:07.186Z,925.52
2017-05-09T03:58:25.965Z,925.5
2017-05-09T03:58:45.248Z,925.46
2017-05-09T03:59:04.527Z,925.43
2017-05-09T03:59:23.816Z,925.47
2017-05-09T03:59:42.609Z,925.42
2017-05-09T04:00:01.885Z,925.44
2017-05-09T04:00:21.168Z,925.44
2017-05-09T04:00:40.414Z,925.41